Time;durP1;ratioP1;P1;durP2;ratioP2;P2;SDS_P1;SDS_P2;PMS_P1;PMS_P2;Temp;Humidity;BMP_temperature;BMP_pressure;BME280_temperature;BME280_humidity;BME280_pressure;Samples;Min_cycle;Max_cycle;Signal;HPM_P1;HPM_P2
2023/07/27 00:02:10;;;;;;;;;;;;;;;;;;4965471;28;19922;-74
2023/07/27 00:04:57;;;;;;;;;;;;;;;;;;4966613;28;19918;-74
2023/07/27 00:07:43;;;;;;;;;;;;;;;;;;4955799;28;19945;-74
2023/07/27 00:10:29;;;;;;;;;;;;;;;;;;4956945;28;19919;-74
2023/07/27 00:13:17;;;;;;;;;;;;;;;;;;4957106;28;19969;-74
2023/07/27 00:16:03;;;;;;;;;;;;;;;;;;4960716;28;20250;-74
2023/07/27 00:18:49;;;;;;;;;;;;;;;;;;4964006;28;20571;-74
2023/07/27 00:21:36;;;;;;;;;;;;;;;;;;4960886;28;19949;-74
2023/07/27 00:24:22;;;;;;;;;;;;;;;;;;4961277;28;19926;-74
2023/07/27 00:27:09;;;;;;;;;;;;;;;;;;4958761;28;19929;-74
2023/07/27 00:29:55;;;;;;;;;;;;;;;;;;4979464;28;19924;-74
2023/07/27 00:32:42;;;;;;;;;;;;;;;;;;4987199;28;19930;-72
2023/07/27 00:35:29;;;;;;;;;;;;;;;;;;4977242;28;19918;-73
2023/07/27 00:38:15;;;;;;;;;;;;;;;;;;4981351;28;19918;-75
2023/07/27 00:41:02;;;;;;;;;;;;;;;;;;4970954;28;19918;-75
2023/07/27 00:43:48;;;;;;;;;;;;;;;;;;4966360;28;19914;-75
2023/07/27 00:46:38;;;;;;;;;;;;;;;;;;4977856;28;19929;-74
2023/07/27 00:49:24;;;;;;;;;;;;;;;;;;4986537;28;19973;-74
2023/07/27 00:52:10;;;;;;;;;;;;;;;;;;4988866;28;19926;-73
2023/07/27 00:54:57;;;;;;;;;;;;;;;;;;4987974;28;19919;-73
2023/07/27 00:57:44;;;;;;;;;;;;;;;;;;4985917;28;19930;-75
2023/07/27 01:00:30;;;;;;;;;;;;;;;;;;4971801;28;19922;-73
2023/07/27 01:03:16;;;;;;;;;;;;;;;;;;4969470;28;19919;-73
2023/07/27 01:06:03;;;;;;;;;;;;;;;;;;4964471;28;19918;-73
2023/07/27 01:08:49;;;;;;;;;;;;;;;;;;4955028;28;19925;-75
2023/07/27 01:11:36;;;;;;;;;;;;;;;;;;4940489;28;19926;-73
2023/07/27 01:14:22;;;;;;;;;;;;;;;;;;4963801;28;19922;-73
2023/07/27 01:17:09;;;;;;;;;;;;;;;;;;4964587;28;19914;-74
2023/07/27 01:19:55;;;;;;;;;;;;;;;;;;4967185;28;19925;-74
2023/07/27 01:22:42;;;;;;;;;;;;;;;;;;4962799;28;19922;-75
2023/07/27 01:25:28;;;;;;;;;;;;;;;;;;4969097;28;20358;-74
2023/07/27 01:28:15;;;;;;;;;;;;;;;;;;4967335;28;19922;-74
2023/07/27 01:31:01;;;;;;;;;;;;;;;;;;4954297;28;19918;-75
2023/07/27 01:33:48;;;;;;;;;;;;;;;;;;4958483;28;19926;-73
2023/07/27 01:36:34;;;;;;;;;;;;;;;;;;4962337;28;20329;-74
2023/07/27 01:39:21;;;;;;;;;;;;;;;;;;4947003;28;20412;-73
2023/07/27 01:42:11;;;;;;;;;;;;;;;;;;4960651;28;19922;-73
2023/07/27 01:44:57;;;;;;;;;;;;;;;;;;4950559;28;19918;-74
2023/07/27 01:47:43;;;;;;;;;;;;;;;;;;4955724;28;19929;-73
2023/07/27 01:50:30;;;;;;;;;;;;;;;;;;4963667;28;20400;-73
2023/07/27 01:53:16;;;;;;;;;;;;;;;;;;4960763;28;19926;-73
2023/07/27 01:56:03;;;;;;;;;;;;;;;;;;4956378;28;19918;-72
2023/07/27 01:58:49;;;;;;;;;;;;;;;;;;4960800;28;20109;-73
2023/07/27 02:01:36;;;;;;;;;;;;;;;;;;4961355;28;19918;-72
2023/07/27 02:04:23;;;;;;;;;;;;;;;;;;4934443;28;19934;-73
2023/07/27 02:07:09;;;;;;;;;;;;;;;;;;4962867;28;19915;-73
2023/07/27 02:09:56;;;;;;;;;;;;;;;;;;4963441;28;20459;-74
2023/07/27 02:12:42;;;;;;;;;;;;;;;;;;4960848;28;19930;-74
2023/07/27 02:15:28;;;;;;;;;;;;;;;;;;4956569;28;19925;-74
2023/07/27 02:18:15;;;;;;;;;;;;;;;;;;4963670;28;19933;-74
2023/07/27 02:21:01;;;;;;;;;;;;;;;;;;4959324;28;19919;-74
2023/07/27 02:23:48;;;;;;;;;;;;;;;;;;4961865;28;19918;-74
2023/07/27 02:26:34;;;;;;;;;;;;;;;;;;4958007;28;19918;-74
2023/07/27 02:29:21;;;;;;;;;;;;;;;;;;4960202;28;19924;-74
2023/07/27 02:32:07;;;;;;;;;;;;;;;;;;4957668;28;20374;-74
2023/07/27 02:34:54;;;;;;;;;;;;;;;;;;4959988;28;19918;-74
2023/07/27 02:37:40;;;;;;;;;;;;;;;;;;4952204;28;19926;-74
2023/07/27 02:40:27;;;;;;;;;;;;;;;;;;4956910;28;20527;-74
2023/07/27 02:43:13;;;;;;;;;;;;;;;;;;4963007;28;19927;-74
2023/07/27 02:46:00;;;;;;;;;;;;;;;;;;4954785;28;19922;-73
2023/07/27 02:48:46;;;;;;;;;;;;;;;;;;4956023;28;20401;-74
2023/07/27 02:51:33;;;;;;;;;;;;;;;;;;4956825;28;19929;-74
2023/07/27 02:54:19;;;;;;;;;;;;;;;;;;4958110;28;20377;-74
2023/07/27 02:57:06;;;;;;;;;;;;;;;;;;4942017;28;19926;-74
2023/07/27 02:59:52;;;;;;;;;;;;;;;;;;4920689;28;19923;-74
2023/07/27 03:02:38;;;;;;;;;;;;;;;;;;4920615;28;20666;-74
2023/07/27 03:05:25;;;;;;;;;;;;;;;;;;4922828;28;20608;-74
2023/07/27 03:08:11;;;;;;;;;;;;;;;;;;4926192;28;19915;-75
2023/07/27 03:10:58;;;;;;;;;;;;;;;;;;4926040;28;19930;-73
2023/07/27 03:13:44;;;;;;;;;;;;;;;;;;4945365;28;20279;-74
2023/07/27 03:16:31;;;;;;;;;;;;;;;;;;4934906;28;19921;-73
2023/07/27 03:19:17;;;;;;;;;;;;;;;;;;4936891;28;19923;-74
2023/07/27 03:22:04;;;;;;;;;;;;;;;;;;4924075;28;20299;-74
2023/07/27 03:24:50;;;;;;;;;;;;;;;;;;4934276;28;20453;-74
2023/07/27 03:27:37;;;;;;;;;;;;;;;;;;4943030;28;19923;-73
2023/07/27 03:30:23;;;;;;;;;;;;;;;;;;4935663;28;20302;-74
2023/07/27 03:33:10;;;;;;;;;;;;;;;;;;4938010;28;19936;-74
2023/07/27 03:35:56;;;;;;;;;;;;;;;;;;4947097;28;20540;-74
2023/07/27 03:38:43;;;;;;;;;;;;;;;;;;4950582;28;19923;-74
2023/07/27 03:41:29;;;;;;;;;;;;;;;;;;4942557;28;19923;-74
2023/07/27 03:44:16;;;;;;;;;;;;;;;;;;4923074;28;19919;-73
2023/07/27 03:47:02;;;;;;;;;;;;;;;;;;4929793;28;19929;-74
2023/07/27 03:49:49;;;;;;;;;;;;;;;;;;4930431;28;20386;-74
2023/07/27 03:52:35;;;;;;;;;;;;;;;;;;4936506;28;19926;-74
2023/07/27 03:55:22;;;;;;;;;;;;;;;;;;4940266;28;19914;-74
2023/07/27 03:58:08;;;;;;;;;;;;;;;;;;4945540;28;19949;-74
2023/07/27 04:00:55;;;;;;;;;;;;;;;;;;4964435;28;19926;-74
2023/07/27 04:03:41;;;;;;;;;;;;;;;;;;4966672;28;19926;-73
2023/07/27 04:06:28;;;;;;;;;;;;;;;;;;4967372;28;19918;-74
2023/07/27 04:09:14;;;;;;;;;;;;;;;;;;4967371;28;20448;-74
2023/07/27 04:12:00;;;;;;;;;;;;;;;;;;4960292;28;19930;-74
2023/07/27 04:14:47;;;;;;;;;;;;;;;;;;4962362;28;19953;-73
2023/07/27 04:17:33;;;;;;;;;;;;;;;;;;4963470;28;20444;-74
2023/07/27 04:20:20;;;;;;;;;;;;;;;;;;4966869;28;20194;-73
2023/07/27 04:23:06;;;;;;;;;;;;;;;;;;4965442;28;19925;-73
2023/07/27 04:25:53;;;;;;;;;;;;;;;;;;4968552;28;19918;-74
2023/07/27 04:28:39;;;;;;;;;;;;;;;;;;4968385;28;19922;-74
2023/07/27 04:31:26;;;;;;;;;;;;;;;;;;4962731;28;20338;-74
2023/07/27 04:34:12;;;;;;;;;;;;;;;;;;4959652;28;19934;-74
2023/07/27 04:36:59;;;;;;;;;;;;;;;;;;4965130;28;19921;-74
2023/07/27 04:39:45;;;;;;;;;;;;;;;;;;4963406;28;19929;-74
2023/07/27 04:42:32;;;;;;;;;;;;;;;;;;4963065;28;19914;-74
2023/07/27 04:45:18;;;;;;;;;;;;;;;;;;4944311;28;19914;-74
2023/07/27 04:48:06;;;;;;;;;;;;;;;;;;4938297;28;19930;-74
2023/07/27 04:50:53;;;;;;;;;;;;;;;;;;4944129;28;19918;-74
2023/07/27 04:53:39;;;;;;;;;;;;;;;;;;4954050;28;19934;-74
2023/07/27 04:56:26;;;;;;;;;;;;;;;;;;4959106;28;19918;-75
2023/07/27 04:59:12;;;;;;;;;;;;;;;;;;4965271;28;19930;-74
2023/07/27 05:01:59;;;;;;;;;;;;;;;;;;4958896;28;19918;-74
2023/07/27 05:04:45;;;;;;;;;;;;;;;;;;4953986;28;20219;-74
2023/07/27 05:07:32;;;;;;;;;;;;;;;;;;4963842;28;20289;-74
2023/07/27 05:10:18;;;;;;;;;;;;;;;;;;4960264;28;19921;-74
2023/07/27 05:13:05;;;;;;;;;;;;;;;;;;4971273;28;19934;-74
2023/07/27 05:15:52;;;;;;;;;;;;;;;;;;4970994;28;19918;-75
2023/07/27 05:18:38;;;;;;;;;;;;;;;;;;4970069;28;21568;-74
2023/07/27 05:21:25;;;;;;;;;;;;;;;;;;4970905;28;20456;-74
2023/07/27 05:24:11;;;;;;;;;;;;;;;;;;4957495;28;21735;-74
2023/07/27 05:26:58;;;;;;;;;;;;;;;;;;4965971;28;19929;-75
2023/07/27 05:29:44;;;;;;;;;;;;;;;;;;4967212;28;19917;-75
2023/07/27 05:32:31;;;;;;;;;;;;;;;;;;4936907;28;19930;-75
2023/07/27 05:35:17;;;;;;;;;;;;;;;;;;4961030;28;19953;-74
2023/07/27 05:38:05;;;;;;;;;;;;;;;;;;4962541;28;20389;-74
2023/07/27 05:40:52;;;;;;;;;;;;;;;;;;4971938;28;19922;-74
2023/07/27 05:43:38;;;;;;;;;;;;;;;;;;4968293;28;19929;-75
2023/07/27 05:46:25;;;;;;;;;;;;;;;;;;4964649;28;20484;-75
2023/07/27 05:49:11;;;;;;;;;;;;;;;;;;4967051;28;20399;-75
2023/07/27 05:51:58;;;;;;;;;;;;;;;;;;4954295;28;19922;-76
2023/07/27 05:54:44;;;;;;;;;;;;;;;;;;4966030;28;20388;-75
2023/07/27 05:57:31;;;;;;;;;;;;;;;;;;4961417;28;19934;-74
2023/07/27 06:00:17;;;;;;;;;;;;;;;;;;4948370;28;19956;-75
2023/07/27 06:03:04;;;;;;;;;;;;;;;;;;4953436;28;20370;-75
2023/07/27 06:05:50;;;;;;;;;;;;;;;;;;4955603;28;19933;-74
2023/07/27 06:08:37;;;;;;;;;;;;;;;;;;4954342;28;19929;-74
2023/07/27 06:11:23;;;;;;;;;;;;;;;;;;4968946;28;19918;-74
2023/07/27 06:14:10;;;;;;;;;;;;;;;;;;4956156;28;19926;-74
2023/07/27 06:16:56;;;;;;;;;;;;;;;;;;4954525;28;19923;-74
2023/07/27 06:19:43;;;;;;;;;;;;;;;;;;4967004;28;20747;-74
2023/07/27 06:22:29;;;;;;;;;;;;;;;;;;4968261;28;19918;-75
2023/07/27 06:25:16;;;;;;;;;;;;;;;;;;4948809;28;19926;-75
2023/07/27 06:28:02;;;;;;;;;;;;;;;;;;4964717;28;19926;-74
2023/07/27 06:30:49;;;;;;;;;;;;;;;;;;4972240;28;20397;-74
2023/07/27 06:33:35;;;;;;;;;;;;;;;;;;4967727;28;19934;-75
2023/07/27 06:36:22;;;;;;;;;;;;;;;;;;4973006;28;19932;-75
2023/07/27 06:39:08;;;;;;;;;;;;;;;;;;4961025;28;19921;-73
2023/07/27 06:41:55;;;;;;;;;;;;;;;;;;4946348;28;19929;-76
2023/07/27 06:44:42;;;;;;;;;;;;;;;;;;4953473;28;19933;-76
2023/07/27 06:47:28;;;;;;;;;;;;;;;;;;4954748;28;19929;-75
2023/07/27 06:50:15;;;;;;;;;;;;;;;;;;4942770;28;19961;-75
2023/07/27 06:53:01;;;;;;;;;;;;;;;;;;4947081;28;19935;-74
2023/07/27 06:55:48;;;;;;;;;;;;;;;;;;4948975;28;20034;-74
2023/07/27 06:58:34;;;;;;;;;;;;;;;;;;4963110;28;19937;-74
2023/07/27 07:01:20;;;;;;;;;;;;;;;;;;4958844;28;19925;-75
2023/07/27 07:04:07;;;;;;;;;;;;;;;;;;4949024;28;19944;-74
2023/07/27 07:06:53;;;;;;;;;;;;;;;;;;4949573;28;19941;-73
2023/07/27 07:09:40;;;;;;;;;;;;;;;;;;4953059;28;20390;-74
2023/07/27 07:12:27;;;;;;;;;;;;;;;;;;4951378;28;19926;-76
2023/07/27 07:15:13;;;;;;;;;;;;;;;;;;4946302;28;19923;-74
2023/07/27 07:18:00;;;;;;;;;;;;;;;;;;4941981;28;19929;-73
2023/07/27 07:20:47;;;;;;;;;;;;;;;;;;4945838;28;19923;-74
2023/07/27 07:23:33;;;;;;;;;;;;;;;;;;4950265;28;19929;-74
2023/07/27 07:26:20;;;;;;;;;;;;;;;;;;4949126;28;19925;-74
2023/07/27 07:29:07;;;;;;;;;;;;;;;;;;4947486;28;19934;-73
2023/07/27 07:31:53;;;;;;;;;;;;;;;;;;4942842;28;19915;-73
2023/07/27 07:34:40;;;;;;;;;;;;;;;;;;4948137;28;19926;-73
2023/07/27 07:37:26;;;;;;;;;;;;;;;;;;4940989;28;19929;-73
2023/07/27 07:40:13;;;;;;;;;;;;;;;;;;4948760;28;19961;-74
2023/07/27 07:42:59;;;;;;;;;;;;;;;;;;4939906;28;19922;-74
2023/07/27 07:45:46;;;;;;;;;;;;;;;;;;4959699;28;19928;-74
2023/07/27 07:48:33;;;;;;;;;;;;;;;;;;4952680;28;19928;-74
2023/07/27 07:51:20;;;;;;;;;;;;;;;;;;4955617;28;19946;-75
2023/07/27 07:54:08;;;;;;;;;;;;;;;;;;4943230;28;19930;-73
2023/07/27 07:56:55;;;;;;;;;;;;;;;;;;4957611;28;19927;-74
2023/07/27 07:59:41;;;;;;;;;;;;;;;;;;4962807;28;20020;-74
2023/07/27 08:02:28;;;;;;;;;;;;;;;;;;4966777;28;19926;-74
2023/07/27 08:05:14;;;;;;;;;;;;;;;;;;4963821;28;19922;-74
2023/07/27 08:08:01;;;;;;;;;;;;;;;;;;4966582;28;19952;-75
2023/07/27 08:10:47;;;;;;;;;;;;;;;;;;4956808;28;19922;-74
2023/07/27 08:13:34;;;;;;;;;;;;;;;;;;4947206;28;19930;-74
2023/07/27 08:16:20;;;;;;;;;;;;;;;;;;4957692;28;20378;-74
2023/07/27 08:19:07;;;;;;;;;;;;;;;;;;4964546;28;19923;-74
2023/07/27 08:21:53;;;;;;;;;;;;;;;;;;4946501;28;19918;-74
2023/07/27 08:24:40;;;;;;;;;;;;;;;;;;4951495;28;19923;-74
2023/07/27 08:27:26;;;;;;;;;;;;;;;;;;4973187;28;19926;-74
2023/07/27 08:30:13;;;;;;;;;;;;;;;;;;4974882;28;19928;-74
2023/07/27 08:32:59;;;;;;;;;;;;;;;;;;4972183;28;19933;-73
2023/07/27 08:35:46;;;;;;;;;;;;;;;;;;4948414;28;20511;-73
2023/07/27 08:38:33;;;;;;;;;;;;;;;;;;4965455;28;19929;-73
2023/07/27 08:41:20;;;;;;;;;;;;;;;;;;4953275;28;19922;-73
2023/07/27 08:44:06;;;;;;;;;;;;;;;;;;4956810;28;19922;-75
2023/07/27 08:46:53;;;;;;;;;;;;;;;;;;4965087;28;19933;-75
2023/07/27 08:49:39;;;;;;;;;;;;;;;;;;4965996;28;19944;-74
2023/07/27 08:52:26;;;;;;;;;;;;;;;;;;4963873;28;19922;-74
2023/07/27 08:55:12;;;;;;;;;;;;;;;;;;4957930;28;19935;-75
2023/07/27 08:57:59;;;;;;;;;;;;;;;;;;4936051;28;20469;-73
2023/07/27 09:00:45;;;;;;;;;;;;;;;;;;4966571;28;19925;-77
2023/07/27 09:03:32;;;;;;;;;;;;;;;;;;4963648;28;19926;-73
2023/07/27 09:06:18;;;;;;;;;;;;;;;;;;4959487;28;19919;-73
2023/07/27 09:09:05;;;;;;;;;;;;;;;;;;4954727;28;19957;-74
2023/07/27 09:11:52;;;;;;;;;;;;;;;;;;4948248;28;20382;-74
2023/07/27 09:14:38;;;;;;;;;;;;;;;;;;4946136;28;20394;-74
2023/07/27 09:17:25;;;;;;;;;;;;;;;;;;4947271;28;19922;-75
2023/07/27 09:20:12;;;;;;;;;;;;;;;;;;4943830;28;20006;-73
2023/07/27 09:22:58;;;;;;;;;;;;;;;;;;4966149;28;19922;-73
2023/07/27 09:25:45;;;;;;;;;;;;;;;;;;4966824;28;19918;-76
2023/07/27 09:28:31;;;;;;;;;;;;;;;;;;4965672;28;19926;-74
2023/07/27 09:31:17;;;;;;;;;;;;;;;;;;4964902;28;19922;-75
2023/07/27 09:34:04;;;;;;;;;;;;;;;;;;4961953;28;19933;-74
2023/07/27 09:36:51;;;;;;;;;;;;;;;;;;4955270;28;19918;-75
2023/07/27 09:39:43;;;;;;;;;;;;;;;;;;4946960;28;19925;-73
2023/07/27 09:42:29;;;;;;;;;;;;;;;;;;4958111;28;19914;-73
2023/07/27 09:45:16;;;;;;;;;;;;;;;;;;4967532;28;19922;-74
2023/07/27 09:48:02;;;;;;;;;;;;;;;;;;4963908;28;19922;-74
2023/07/27 09:50:49;;;;;;;;;;;;;;;;;;4970784;28;20463;-74
2023/07/27 09:53:35;;;;;;;;;;;;;;;;;;4964697;28;19930;-74
2023/07/27 09:56:22;;;;;;;;;;;;;;;;;;4968425;28;20693;-74
2023/07/27 09:59:09;;;;;;;;;;;;;;;;;;4975557;28;19934;-74
2023/07/27 10:01:55;;;;;;;;;;;;;;;;;;4978514;28;19926;-74
2023/07/27 10:04:42;;;;;;;;;;;;;;;;;;4979183;28;20297;-74
2023/07/27 10:07:28;;;;;;;;;;;;;;;;;;4948136;28;19929;-74
2023/07/27 10:10:15;;;;;;;;;;;;;;;;;;4949059;28;19929;-74
2023/07/27 10:13:01;;;;;;;;;;;;;;;;;;4954574;28;20324;-74
2023/07/27 10:15:48;;;;;;;;;;;;;;;;;;4946969;28;19922;-74
2023/07/27 10:18:34;;;;;;;;;;;;;;;;;;4945114;28;19922;-73
2023/07/27 10:21:20;;;;;;;;;;;;;;;;;;4952171;28;20389;-74
2023/07/27 10:24:07;;;;;;;;;;;;;;;;;;4945649;28;19918;-74
2023/07/27 10:26:54;;;;;;;;;;;;;;;;;;4946009;28;19941;-74
2023/07/27 10:29:41;;;;;;;;;;;;;;;;;;4947812;28;19923;-73
2023/07/27 10:32:27;;;;;;;;;;;;;;;;;;4948632;28;19918;-74
2023/07/27 10:35:14;;;;;;;;;;;;;;;;;;4950984;28;20599;-74
2023/07/27 10:38:00;;;;;;;;;;;;;;;;;;4951607;28;19925;-74
2023/07/27 10:40:47;;;;;;;;;;;;;;;;;;4961200;28;19929;-74
2023/07/27 10:43:33;;;;;;;;;;;;;;;;;;4970575;28;19915;-73
2023/07/27 10:46:20;;;;;;;;;;;;;;;;;;4961470;28;19918;-75
2023/07/27 10:49:06;;;;;;;;;;;;;;;;;;4949214;28;19950;-74
2023/07/27 10:51:53;;;;;;;;;;;;;;;;;;4950171;28;19930;-73
2023/07/27 10:54:40;;;;;;;;;;;;;;;;;;4950696;28;19930;-73
2023/07/27 10:57:26;;;;;;;;;;;;;;;;;;4943153;28;20552;-74
2023/07/27 11:00:13;;;;;;;;;;;;;;;;;;4962986;28;19922;-74
2023/07/27 11:02:59;;;;;;;;;;;;;;;;;;4956054;28;19925;-74
2023/07/27 11:05:46;;;;;;;;;;;;;;;;;;4956006;28;19945;-76
2023/07/27 11:08:32;;;;;;;;;;;;;;;;;;4949019;28;19922;-74
2023/07/27 11:11:19;;;;;;;;;;;;;;;;;;4935408;28;19914;-74
2023/07/27 11:14:05;;;;;;;;;;;;;;;;;;4960052;28;19930;-74
2023/07/27 11:16:52;;;;;;;;;;;;;;;;;;4966559;28;19932;-74
2023/07/27 11:19:38;;;;;;;;;;;;;;;;;;4968145;28;20384;-74
2023/07/27 11:22:25;;;;;;;;;;;;;;;;;;4956137;28;19928;-73
2023/07/27 11:25:12;;;;;;;;;;;;;;;;;;4962898;28;19922;-74
2023/07/27 11:27:59;;;;;;;;;;;;;;;;;;4962152;28;19941;-74
2023/07/27 11:30:45;;;;;;;;;;;;;;;;;;4970418;28;20275;-76
2023/07/27 11:33:32;;;;;;;;;;;;;;;;;;4971767;28;19934;-75
2023/07/27 11:36:18;;;;;;;;;;;;;;;;;;4963833;28;19932;-75
2023/07/27 11:39:04;;;;;;;;;;;;;;;;;;4947553;28;19929;-74
2023/07/27 11:41:51;;;;;;;;;;;;;;;;;;4944551;28;20035;-75
2023/07/27 11:44:38;;;;;;;;;;;;;;;;;;4970245;28;19922;-73
2023/07/27 11:47:25;;;;;;;;;;;;;;;;;;4967824;28;19923;-74
2023/07/27 11:50:11;;;;;;;;;;;;;;;;;;4948745;28;19918;-72
2023/07/27 11:53:02;;;;;;;;;;;;;;;;;;4948538;28;20468;-73
2023/07/27 11:55:48;;;;;;;;;;;;;;;;;;4960044;28;19922;-75
2023/07/27 11:58:35;;;;;;;;;;;;;;;;;;4956040;28;19930;-75
2023/07/27 12:01:21;;;;;;;;;;;;;;;;;;4967570;28;19918;-74
2023/07/27 12:04:08;;;;;;;;;;;;;;;;;;4958734;28;20134;-73
2023/07/27 12:06:54;;;;;;;;;;;;;;;;;;4969836;28;20401;-71
2023/07/27 12:09:41;;;;;;;;;;;;;;;;;;4971069;28;20287;-74
2023/07/27 12:12:27;;;;;;;;;;;;;;;;;;4953139;28;20601;-73
2023/07/27 12:15:14;;;;;;;;;;;;;;;;;;4943880;28;19932;-73
2023/07/27 12:18:00;;;;;;;;;;;;;;;;;;4952610;28;19923;-74
2023/07/27 12:20:47;;;;;;;;;;;;;;;;;;4947211;28;19922;-74
2023/07/27 12:23:34;;;;;;;;;;;;;;;;;;4962053;28;19925;-73
2023/07/27 12:26:21;;;;;;;;;;;;;;;;;;4948338;28;19922;-73
2023/07/27 12:29:07;;;;;;;;;;;;;;;;;;4949989;28;19919;-73
2023/07/27 12:31:54;;;;;;;;;;;;;;;;;;4957666;28;19940;-73
2023/07/27 12:34:40;;;;;;;;;;;;;;;;;;4959625;28;19934;-74
2023/07/27 12:37:27;;;;;;;;;;;;;;;;;;4946345;28;19923;-70
2023/07/27 12:40:13;;;;;;;;;;;;;;;;;;4957814;28;19918;-73
2023/07/27 12:43:00;;;;;;;;;;;;;;;;;;4985356;28;20452;-74
2023/07/27 12:45:47;;;;;;;;;;;;;;;;;;4964561;28;19928;-74
2023/07/27 12:48:33;;;;;;;;;;;;;;;;;;4975128;28;19928;-73
2023/07/27 12:51:19;;;;;;;;;;;;;;;;;;4949005;28;20024;-73
2023/07/27 12:54:06;;;;;;;;;;;;;;;;;;4950889;28;20338;-73
2023/07/27 12:56:53;;;;;;;;;;;;;;;;;;4948903;28;19927;-74
2023/07/27 12:59:40;;;;;;;;;;;;;;;;;;4952550;28;19927;-74
2023/07/27 13:02:26;;;;;;;;;;;;;;;;;;4955705;28;20613;-73
2023/07/27 13:05:15;;;;;;;;;;;;;;;;;;4946776;28;19945;-76
2023/07/27 13:08:01;;;;;;;;;;;;;;;;;;4948756;28;19927;-72
2023/07/27 13:10:48;;;;;;;;;;;;;;;;;;4949188;28;19934;-73
2023/07/27 13:13:34;;;;;;;;;;;;;;;;;;4954032;28;19923;-72
2023/07/27 13:16:21;;;;;;;;;;;;;;;;;;4946088;28;19922;-72
2023/07/27 13:19:07;;;;;;;;;;;;;;;;;;4949793;28;20355;-73
2023/07/27 13:21:54;;;;;;;;;;;;;;;;;;4947406;28;21869;-74
2023/07/27 13:24:40;;;;;;;;;;;;;;;;;;4949197;28;19930;-74
2023/07/27 13:27:26;;;;;;;;;;;;;;;;;;4945640;28;19945;-73
2023/07/27 13:30:13;;;;;;;;;;;;;;;;;;4946135;28;19918;-73
2023/07/27 13:33:00;;;;;;;;;;;;;;;;;;4946349;28;19926;-73
2023/07/27 13:35:46;;;;;;;;;;;;;;;;;;4942527;28;19933;-73
2023/07/27 13:38:32;;;;;;;;;;;;;;;;;;4944089;28;19922;-74
2023/07/27 13:41:19;;;;;;;;;;;;;;;;;;4947863;28;19928;-73
2023/07/27 13:44:05;;;;;;;;;;;;;;;;;;4942303;28;19923;-73
2023/07/27 13:46:52;;;;;;;;;;;;;;;;;;4950560;28;20713;-72
2023/07/27 13:49:38;;;;;;;;;;;;;;;;;;4942055;28;19919;-73
2023/07/27 13:52:26;;;;;;;;;;;;;;;;;;4950700;28;19928;-75
2023/07/27 13:55:12;;;;;;;;;;;;;;;;;;4949004;28;19934;-74
2023/07/27 13:57:59;;;;;;;;;;;;;;;;;;4959018;28;19945;-74
2023/07/27 14:00:45;;;;;;;;;;;;;;;;;;4965624;28;20392;-74
2023/07/27 14:03:32;;;;;;;;;;;;;;;;;;4972155;28;19945;-74
2023/07/27 14:06:19;;;;;;;;;;;;;;;;;;4965425;28;19921;-74
2023/07/27 14:09:06;;;;;;;;;;;;;;;;;;4970002;28;19927;-74
2023/07/27 14:11:52;;;;;;;;;;;;;;;;;;4967989;28;19922;-74
2023/07/27 14:14:39;;;;;;;;;;;;;;;;;;4967458;28;19949;-74
2023/07/27 14:17:25;;;;;;;;;;;;;;;;;;4961715;28;19922;-73
2023/07/27 14:20:12;;;;;;;;;;;;;;;;;;4950644;28;20268;-74
2023/07/27 14:22:58;;;;;;;;;;;;;;;;;;4958632;28;19918;-75
2023/07/27 14:25:44;;;;;;;;;;;;;;;;;;4970041;28;19933;-74
2023/07/27 14:28:31;;;;;;;;;;;;;;;;;;4963454;28;19929;-74
2023/07/27 14:31:18;;;;;;;;;;;;;;;;;;4968604;28;19929;-75
2023/07/27 14:34:05;;;;;;;;;;;;;;;;;;4968233;28;19937;-74
2023/07/27 14:36:52;;;;;;;;;;;;;;;;;;4946695;28;20306;-74
2023/07/27 14:39:38;;;;;;;;;;;;;;;;;;4955745;28;19949;-74
2023/07/27 14:42:25;;;;;;;;;;;;;;;;;;4948792;28;19930;-75
2023/07/27 14:45:11;;;;;;;;;;;;;;;;;;4966934;28;19919;-74
2023/07/27 14:47:58;;;;;;;;;;;;;;;;;;4963733;28;19950;-74
2023/07/27 14:50:44;;;;;;;;;;;;;;;;;;4958928;28;19922;-75
2023/07/27 14:53:30;;;;;;;;;;;;;;;;;;4947789;28;19940;-74
2023/07/27 14:56:20;;;;;;;;;;;;;;;;;;4946281;28;20397;-74
2023/07/27 14:59:06;;;;;;;;;;;;;;;;;;4940260;28;19930;-74
2023/07/27 15:01:53;;;;;;;;;;;;;;;;;;4940875;28;20089;-73
2023/07/27 15:04:39;;;;;;;;;;;;;;;;;;4947581;28;20369;-73
2023/07/27 15:07:26;;;;;;;;;;;;;;;;;;4948828;28;19923;-73
2023/07/27 15:10:12;;;;;;;;;;;;;;;;;;4958645;28;19922;-74
2023/07/27 15:12:59;;;;;;;;;;;;;;;;;;4977646;28;20486;-73
2023/07/27 15:15:45;;;;;;;;;;;;;;;;;;4954352;28;19927;-73
2023/07/27 15:18:35;;;;;;;;;;;;;;;;;;4952492;28;19925;-73
2023/07/27 15:21:21;;;;;;;;;;;;;;;;;;4947813;28;19923;-73
2023/07/27 15:24:08;;;;;;;;;;;;;;;;;;4949341;28;19930;-74
2023/07/27 15:26:54;;;;;;;;;;;;;;;;;;4968916;28;19922;-74
2023/07/27 15:29:42;;;;;;;;;;;;;;;;;;4940409;28;19918;-73
2023/07/27 15:32:28;;;;;;;;;;;;;;;;;;4956095;28;19919;-73
2023/07/27 15:35:15;;;;;;;;;;;;;;;;;;4952770;28;20518;-73
2023/07/27 15:38:01;;;;;;;;;;;;;;;;;;4942713;28;19919;-72
2023/07/27 15:40:48;;;;;;;;;;;;;;;;;;4941455;28;19923;-74
2023/07/27 15:43:34;;;;;;;;;;;;;;;;;;4945189;28;20440;-74
2023/07/27 15:46:21;;;;;;;;;;;;;;;;;;4954483;28;19919;-72
2023/07/27 15:49:07;;;;;;;;;;;;;;;;;;4935184;28;19918;-72
2023/07/27 15:51:54;;;;;;;;;;;;;;;;;;4940890;28;20037;-72
2023/07/27 15:54:40;;;;;;;;;;;;;;;;;;4935790;28;19927;-74
2023/07/27 15:57:45;;;;;;;;;;;;;;;;;;4941916;28;19949;-75
2023/07/27 16:00:40;;;;;;;;;;;;;;;;;;4932465;28;19921;-76
2023/07/27 16:03:29;;;;;;;;;;;;;;;;;;4944768;28;19919;-74
2023/07/27 16:06:16;;;;;;;;;;;;;;;;;;4936172;28;20475;-74
2023/07/27 16:09:02;;;;;;;;;;;;;;;;;;4963294;28;19922;-73
2023/07/27 16:11:49;;;;;;;;;;;;;;;;;;4912612;28;19925;-73
2023/07/27 16:14:37;;;;;;;;;;;;;;;;;;4944849;28;19930;-74
2023/07/27 16:17:26;;;;;;;;;;;;;;;;;;4953192;28;19926;-73
2023/07/27 16:20:21;;;;;;;;;;;;;;;;;;4920783;28;19922;-76
2023/07/27 16:23:30;;;;;;;;;;;;;;;;;;4934974;28;20416;-77
2023/07/27 16:26:14;;;;;;;;;;;;;;;;;;4961734;28;19915;-76
2023/07/27 16:29:01;;;;;;;;;;;;;;;;;;4970208;28;19914;-76
2023/07/27 16:31:47;;;;;;;;;;;;;;;;;;4950443;28;19930;-74
2023/07/27 16:34:34;;;;;;;;;;;;;;;;;;4942597;28;19930;-75
2023/07/27 16:37:20;;;;;;;;;;;;;;;;;;4942772;28;19925;-74
2023/07/27 16:40:07;;;;;;;;;;;;;;;;;;4960981;28;19918;-74
2023/07/27 16:42:53;;;;;;;;;;;;;;;;;;4955766;28;19927;-75
2023/07/27 16:45:40;;;;;;;;;;;;;;;;;;4983713;28;19933;-76
2023/07/27 16:48:26;;;;;;;;;;;;;;;;;;4971910;28;19928;-74
2023/07/27 16:51:14;;;;;;;;;;;;;;;;;;4949736;28;19922;-76
2023/07/27 16:54:05;;;;;;;;;;;;;;;;;;4957098;28;20660;-76
2023/07/27 16:56:52;;;;;;;;;;;;;;;;;;4954282;28;19929;-72
2023/07/27 16:59:39;;;;;;;;;;;;;;;;;;4931953;28;19930;-76
2023/07/27 17:02:25;;;;;;;;;;;;;;;;;;4903584;28;19922;-75
2023/07/27 17:05:14;;;;;;;;;;;;;;;;;;4889881;28;19918;-78
2023/07/27 17:08:07;;;;;;;;;;;;;;;;;;4932308;28;22077;-75
2023/07/27 17:10:59;;;;;;;;;;;;;;;;;;4934785;28;19922;-76
2023/07/27 17:13:58;;;;;;;;;;;;;;;;;;4935471;28;19923;-76
2023/07/27 17:16:51;;;;;;;;;;;;;;;;;;4952345;28;19922;-77
2023/07/27 17:19:52;;;;;;;;;;;;;;;;;;4935667;28;19925;-76
2023/07/27 17:22:39;;;;;;;;;;;;;;;;;;4935202;28;20318;-74
2023/07/27 17:25:25;;;;;;;;;;;;;;;;;;4937364;28;19927;-77
2023/07/27 17:28:12;;;;;;;;;;;;;;;;;;4922899;28;19923;-76
2023/07/27 17:30:58;;;;;;;;;;;;;;;;;;4926961;28;20314;-75
2023/07/27 17:33:45;;;;;;;;;;;;;;;;;;4936608;28;19949;-75
2023/07/27 17:36:31;;;;;;;;;;;;;;;;;;4921838;28;20728;-74
2023/07/27 17:39:18;;;;;;;;;;;;;;;;;;4939920;28;20298;-74
2023/07/27 17:42:04;;;;;;;;;;;;;;;;;;4945305;28;20001;-75
2023/07/27 17:44:51;;;;;;;;;;;;;;;;;;4934246;28;20256;-73
2023/07/27 17:47:37;;;;;;;;;;;;;;;;;;4939792;28;19929;-73
2023/07/27 17:50:24;;;;;;;;;;;;;;;;;;4929986;28;19922;-74
2023/07/27 17:53:10;;;;;;;;;;;;;;;;;;4935550;28;19929;-74
2023/07/27 17:55:57;;;;;;;;;;;;;;;;;;4921072;28;19929;-72
2023/07/27 17:58:43;;;;;;;;;;;;;;;;;;4955438;28;19926;-74
2023/07/27 18:01:30;;;;;;;;;;;;;;;;;;4929120;28;19930;-72
2023/07/27 18:04:16;;;;;;;;;;;;;;;;;;4940552;28;19923;-72
2023/07/27 18:07:03;;;;;;;;;;;;;;;;;;4933366;28;19930;-73
2023/07/27 18:09:49;;;;;;;;;;;;;;;;;;4938517;28;20371;-73
2023/07/27 18:12:36;;;;;;;;;;;;;;;;;;4934231;28;19923;-72
2023/07/27 18:15:22;;;;;;;;;;;;;;;;;;4915169;28;19937;-73
2023/07/27 18:18:09;;;;;;;;;;;;;;;;;;4925705;28;19918;-74
2023/07/27 18:20:55;;;;;;;;;;;;;;;;;;4947408;28;19930;-73
2023/07/27 18:23:42;;;;;;;;;;;;;;;;;;4949698;28;19925;-74
2023/07/27 18:26:28;;;;;;;;;;;;;;;;;;4934560;28;19935;-74
2023/07/27 18:29:15;;;;;;;;;;;;;;;;;;4943316;28;19923;-75
2023/07/27 18:32:01;;;;;;;;;;;;;;;;;;4934869;28;20325;-73
2023/07/27 18:34:48;;;;;;;;;;;;;;;;;;4927260;28;19937;-73
2023/07/27 18:37:35;;;;;;;;;;;;;;;;;;4940373;28;19948;-73
2023/07/27 18:40:21;;;;;;;;;;;;;;;;;;4940683;28;20362;-73
2023/07/27 18:43:07;;;;;;;;;;;;;;;;;;4912223;29;19992;-73
2023/07/27 18:45:54;;;;;;;;;;;;;;;;;;4926868;28;19931;-73
2023/07/27 18:48:40;;;;;;;;;;;;;;;;;;4936542;28;19922;-73
2023/07/27 18:51:27;;;;;;;;;;;;;;;;;;4935003;28;19929;-74
2023/07/27 18:54:13;;;;;;;;;;;;;;;;;;4930150;28;20398;-74
2023/07/27 18:57:00;;;;;;;;;;;;;;;;;;4940371;28;19923;-74
2023/07/27 18:59:46;;;;;;;;;;;;;;;;;;4945230;28;19930;-74